createdAt,value
2022-12-15T00:00:02.870Z,96606.94
2022-12-15T00:01:24.480Z,96597.28
2022-12-15T00:02:43.332Z,96610.50
2022-12-15T00:04:02.252Z,96616.53
2022-12-15T00:05:21.794Z,96611.22
2022-12-15T00:06:41.171Z,96597.56
2022-12-15T00:07:59.431Z,96622.66
2022-12-15T00:09:20.623Z,96622.66
2022-12-15T00:10:39.081Z,96594.00
2022-12-15T00:12:00.803Z,96618.28
2022-12-15T00:13:25.013Z,96618.06
2022-12-15T00:14:43.276Z,96611.53
2022-12-15T00:16:02.952Z,96591.63
2022-12-15T00:17:22.168Z,96609.34
2022-12-15T00:18:40.468Z,96619.13
2022-12-15T00:19:58.731Z,96616.41
2022-12-15T00:21:17.132Z,96621.34
2022-12-15T00:22:36.399Z,96621.25
2022-12-15T00:23:54.717Z,96625.88
2022-12-15T00:25:13.019Z,96621.72
2022-12-15T00:26:31.233Z,96619.84
2022-12-15T00:27:53.109Z,96630.09
2022-12-15T00:29:11.458Z,96627.50
2022-12-15T00:30:29.896Z,96633.53
2022-12-15T00:31:48.442Z,96631.06
2022-12-15T00:33:08.053Z,96637.19
2022-12-15T00:34:26.891Z,96633.88
2022-12-15T00:35:45.186Z,96639.56
2022-12-15T00:37:03.489Z,96643.44
2022-12-15T00:38:24.311Z,96644.38
2022-12-15T00:39:30.211Z,96642.13
2022-12-15T00:40:33.561Z,96643.31
2022-12-15T00:41:39.601Z,96644.47
2022-12-15T00:42:45.507Z,96642.69
2022-12-15T00:43:56.360Z,96646.16
2022-12-15T00:45:00.118Z,96639.66
2022-12-15T00:46:19.251Z,96651.78
2022-12-15T00:47:25.453Z,96652.25
2022-12-15T00:48:28.799Z,96652.50
2022-12-15T00:50:04.798Z,96658.63
2022-12-15T00:51:08.648Z,96661.78
2022-12-15T00:52:28.365Z,96662.25
2022-12-15T00:53:46.685Z,96657.19
2022-12-15T00:55:05.800Z,96667.09
2022-12-15T00:56:25.296Z,96666.38
2022-12-15T00:57:43.674Z,96668.75
2022-12-15T00:59:04.658Z,96667.69
2022-12-15T01:00:26.525Z,96664.13
2022-12-15T01:01:45.000Z,96668.75
2022-12-15T01:03:08.251Z,96670.88
2022-12-15T01:04:26.651Z,96674.91
2022-12-15T01:05:45.813Z,96674.09
2022-12-15T01:07:07.170Z,96674.69
2022-12-15T01:08:25.445Z,96671.59
2022-12-15T01:09:43.688Z,96676.31
2022-12-15T01:11:02.838Z,96679.38
2022-12-15T01:12:21.332Z,96677.50
2022-12-15T01:13:39.579Z,96675.72
2022-12-15T01:15:00.381Z,96678.69
2022-12-15T01:16:27.209Z,96672.50
2022-12-15T01:17:45.576Z,96675.91
2022-12-15T01:19:03.896Z,96679.63
2022-12-15T01:20:20.577Z,96683.78
2022-12-15T01:21:25.523Z,96676.59
2022-12-15T01:22:31.632Z,96683.78
2022-12-15T01:23:36.378Z,96654.31
2022-12-15T01:24:42.307Z,96682.13
2022-12-15T01:25:45.490Z,96684.72
2022-12-15T01:26:56.621Z,96680.09
2022-12-15T01:28:02.792Z,96686.16
2022-12-15T01:29:06.047Z,96676.00
2022-12-15T01:30:19.051Z,96677.59
2022-12-15T01:31:22.660Z,96679.69
2022-12-15T01:32:29.650Z,96684.41
2022-12-15T01:33:34.894Z,96680.50
2022-12-15T01:34:40.887Z,96689.16
2022-12-15T01:35:44.894Z,96690.56
2022-12-15T01:36:50.874Z,96686.56
2022-12-15T01:37:55.070Z,96700.16
2022-12-15T01:39:01.077Z,96691.66
2022-12-15T01:40:22.335Z,96691.28
2022-12-15T01:41:26.144Z,96700.16
2022-12-15T01:42:32.326Z,96697.53
2022-12-15T01:43:40.791Z,96697.56
2022-12-15T01:44:52.320Z,96704.03
2022-12-15T01:46:07.746Z,96700.25
2022-12-15T01:47:15.233Z,96700.50
2022-12-15T01:48:32.740Z,96680.69
2022-12-15T01:49:36.924Z,96700.84
2022-12-15T01:50:50.023Z,96699.94
2022-12-15T01:52:03.471Z,96706.41
2022-12-15T01:53:07.050Z,96703.88
2022-12-15T01:54:23.969Z,96699.53
2022-12-15T01:55:32.565Z,96706.72
2022-12-15T01:56:46.307Z,96679.38
2022-12-15T01:57:55.780Z,96700.16
2022-12-15T01:59:07.786Z,96704.13
2022-12-15T02:00:13.266Z,96699.44
2022-12-15T02:01:22.786Z,96705.56
2022-12-15T02:02:34.518Z,96709.09
2022-12-15T02:03:47.990Z,96703.78
2022-12-15T02:04:58.798Z,96704.59
2022-12-15T02:06:06.531Z,96708.84
2022-12-15T02:07:14.701Z,96718.06
2022-12-15T02:08:20.951Z,96704.69
2022-12-15T02:09:28.267Z,96714.97
2022-12-15T02:11:00.873Z,96713.06
2022-12-15T02:12:28.896Z,96709.97
2022-12-15T02:13:51.736Z,96711.03
2022-12-15T02:15:20.546Z,96711.38
2022-12-15T02:16:47.517Z,96714.91
2022-12-15T02:18:11.663Z,96716.06
2022-12-15T02:20:14.951Z,96721.75
2022-12-15T02:21:29.713Z,96719.34
2022-12-15T02:23:10.175Z,96723.09
2022-12-15T02:25:00.950Z,96722.03
2022-12-15T02:27:16.117Z,96719.31
2022-12-15T02:28:44.863Z,96733.34
2022-12-15T02:30:46.539Z,96735.81
2022-12-15T02:32:02.349Z,96736.50
2022-12-15T02:33:22.564Z,96740.31
2022-12-15T02:34:43.290Z,96750.59
2022-12-15T02:36:01.203Z,96742.69
2022-12-15T02:37:16.704Z,96749.78
2022-12-15T02:38:33.927Z,96751.19
2022-12-15T02:39:37.318Z,96751.88
2022-12-15T02:40:43.408Z,96750.94
2022-12-15T02:41:49.318Z,96747.81
2022-12-15T02:43:03.515Z,96749.50
2022-12-15T02:44:16.092Z,96758.78
2022-12-15T02:45:35.026Z,96753.84
2022-12-15T02:47:11.244Z,96759.91
2022-12-15T02:48:34.764Z,96752.09
2022-12-15T02:49:59.300Z,96756.63
2022-12-15T02:51:35.647Z,96759.38
2022-12-15T02:52:59.432Z,96756.63
2022-12-15T02:54:45.719Z,96759.50
2022-12-15T02:56:05.991Z,96753.16
2022-12-15T02:57:26.952Z,96741.00
2022-12-15T02:58:46.608Z,96763.88
2022-12-15T03:00:03.642Z,96765.31
2022-12-15T03:01:15.366Z,96768.34
2022-12-15T03:02:25.955Z,96769.03
2022-12-15T03:03:35.635Z,96772.06
2022-12-15T03:04:45.881Z,96763.09
2022-12-15T03:05:54.959Z,96768.84
2022-12-15T03:07:05.339Z,96759.50
2022-12-15T03:08:09.485Z,96760.66
2022-12-15T03:09:15.336Z,96761.13
2022-12-15T03:10:20.617Z,96761.13
2022-12-15T03:11:32.607Z,96768.41
2022-12-15T03:12:35.853Z,96767.47
2022-12-15T03:13:42.212Z,96778.44
2022-12-15T03:14:45.813Z,96779.81
2022-12-15T03:15:52.670Z,96781.22
2022-12-15T03:16:57.177Z,96779.59
2022-12-15T03:18:05.895Z,96767.22
2022-12-15T03:19:09.178Z,96787.97
2022-12-15T03:20:16.123Z,96786.63
2022-12-15T03:21:19.512Z,96788.66
2022-12-15T03:22:26.364Z,96781.53
2022-12-15T03:23:30.195Z,96780.31
2022-12-15T03:24:36.592Z,96788.41
2022-12-15T03:25:39.837Z,96786.25
2022-12-15T03:26:50.191Z,96780.31
2022-12-15T03:27:54.656Z,96786.53
2022-12-15T03:29:00.626Z,96779.81
2022-12-15T03:30:06.797Z,96785.34
2022-12-15T03:31:12.908Z,96790.66
2022-12-15T03:32:19.088Z,96794.69
2022-12-15T03:33:25.973Z,96796.31
2022-12-15T03:34:32.009Z,96797.00
2022-12-15T03:35:35.314Z,96798.41
2022-12-15T03:36:41.358Z,96803.81
2022-12-15T03:37:44.865Z,96800.22
2022-12-15T03:38:51.685Z,96801.19
2022-12-15T03:39:55.017Z,96811.19
2022-12-15T03:41:01.105Z,96807.31
2022-12-15T03:42:04.844Z,96810.03
2022-12-15T03:43:10.737Z,96812.53
2022-12-15T03:44:14.955Z,96809.34
2022-12-15T03:45:23.497Z,96817.16
2022-12-15T03:46:27.246Z,96817.88
2022-12-15T03:47:33.392Z,96818.13
2022-12-15T03:48:39.319Z,96823.19
2022-12-15T03:49:46.063Z,96820.47
2022-12-15T03:50:49.619Z,96824.84
2022-12-15T03:51:55.640Z,96817.16
2022-12-15T03:53:03.217Z,96823.78
2022-12-15T03:54:10.370Z,96823.25
2022-12-15T03:55:14.394Z,96825.47
2022-12-15T03:56:21.417Z,96829.59
2022-12-15T03:57:24.822Z,96829.34
2022-12-15T03:58:30.711Z,96829.47
2022-12-15T03:59:33.923Z,96830.84
2022-12-15T04:00:40.731Z,96832.50
2022-12-15T04:01:49.506Z,96820.13
2022-12-15T04:02:56.328Z,96830.97
2022-12-15T04:04:04.647Z,96835.63
2022-12-15T04:05:16.784Z,96840.41
2022-12-15T04:06:21.015Z,96837.28
2022-12-15T04:07:27.012Z,96834.22
2022-12-15T04:08:30.319Z,96840.97
2022-12-15T04:09:36.274Z,96843.34
2022-12-15T04:10:39.686Z,96840.19
2022-12-15T04:11:46.433Z,96840.31
2022-12-15T04:12:49.996Z,96845.53
2022-12-15T04:13:55.950Z,96845.16
2022-12-15T04:14:59.280Z,96847.75
2022-12-15T04:16:05.731Z,96853.78
2022-12-15T04:17:10.324Z,96855.06
2022-12-15T04:18:16.518Z,96848.91
2022-12-15T04:19:37.622Z,96853.28
2022-12-15T04:20:41.681Z,96854.59
2022-12-15T04:21:47.696Z,96840.28
2022-12-15T04:22:52.859Z,96856.78
2022-12-15T04:24:11.344Z,96858.44
2022-12-15T04:25:33.532Z,96857.63
2022-12-15T04:26:52.011Z,96853.09
2022-12-15T04:28:11.831Z,96863.94
2022-12-15T04:29:30.263Z,96865.56
2022-12-15T04:30:48.945Z,96867.09
2022-12-15T04:32:07.309Z,96871.47
2022-12-15T04:33:30.746Z,96872.69
2022-12-15T04:34:52.127Z,96865.44
2022-12-15T04:36:10.784Z,96858.56
2022-12-15T04:37:30.256Z,96865.56
2022-12-15T04:38:50.822Z,96875.47
2022-12-15T04:40:11.760Z,96868.34
2022-12-15T04:41:33.052Z,96873.44
2022-12-15T04:42:57.278Z,96878.22
2022-12-15T04:44:16.592Z,96878.47
2022-12-15T04:45:40.523Z,96876.38
2022-12-15T04:46:58.817Z,96881.09
2022-12-15T04:48:17.101Z,96878.59
2022-12-15T04:49:36.203Z,96884.06
2022-12-15T04:50:57.255Z,96862.41
2022-12-15T04:52:15.479Z,96884.81
2022-12-15T04:53:35.358Z,96872.66
2022-12-15T04:54:54.414Z,96882.16
2022-12-15T04:56:18.247Z,96883.69
2022-12-15T04:57:37.186Z,96886.41
2022-12-15T04:58:56.416Z,96889.72
2022-12-15T05:00:16.268Z,96889.03
2022-12-15T05:01:34.645Z,96902.06
2022-12-15T05:02:53.283Z,96899.34
2022-12-15T05:04:11.965Z,96914.28
2022-12-15T05:05:31.204Z,96915.59
2022-12-15T05:06:52.278Z,96917.13
2022-12-15T05:08:13.616Z,96921.53
2022-12-15T05:09:32.024Z,96923.88
2022-12-15T05:10:51.139Z,96908.06
2022-12-15T05:12:09.482Z,96923.47
2022-12-15T05:13:27.904Z,96921.94
2022-12-15T05:14:46.372Z,96924.31
2022-12-15T05:16:09.238Z,96935.81
2022-12-15T05:17:27.819Z,96931.69
2022-12-15T05:18:46.087Z,96939.97
2022-12-15T05:20:04.448Z,96944.22
2022-12-15T05:21:24.220Z,96952.59
2022-12-15T05:22:45.158Z,96950.56
2022-12-15T05:24:03.406Z,96944.09
2022-12-15T05:25:23.006Z,96945.72
2022-12-15T05:26:45.578Z,96950.69
2022-12-15T05:28:10.600Z,96957.13
2022-12-15T05:29:28.863Z,96955.16
2022-12-15T05:30:47.303Z,96956.53
2022-12-15T05:31:55.648Z,96961.25
2022-12-15T05:32:58.895Z,96955.63
2022-12-15T05:34:05.962Z,96950.56
2022-12-15T05:35:09.680Z,96948.91
2022-12-15T05:36:15.883Z,96948.09
2022-12-15T05:37:20.102Z,96949.88
2022-12-15T05:38:28.596Z,96953.81
2022-12-15T05:39:34.577Z,96951.31
2022-12-15T05:40:38.068Z,96955.97
2022-12-15T05:41:44.529Z,96962.72
2022-12-15T05:42:49.955Z,96958.44
2022-12-15T05:43:56.482Z,96960.22
2022-12-15T05:44:59.994Z,96963.78
2022-12-15T05:46:07.456Z,96961.69
2022-12-15T05:47:15.266Z,96967.38
2022-12-15T05:48:19.381Z,96968.63
2022-12-15T05:49:26.007Z,96966.03
2022-12-15T05:50:29.412Z,96977.19
2022-12-15T05:51:35.368Z,96970.91
2022-12-15T05:52:38.604Z,96982.28
2022-12-15T05:53:47.964Z,96990.69
2022-12-15T05:54:51.867Z,96988.34
2022-12-15T05:56:05.397Z,96998.56
2022-12-15T05:57:09.578Z,96997.59
2022-12-15T05:58:15.466Z,96993.16
2022-12-15T05:59:20.112Z,96996.56
2022-12-15T06:00:26.865Z,97002.88
2022-12-15T06:01:35.425Z,97001.34
2022-12-15T06:02:38.960Z,97007.03
2022-12-15T06:03:46.013Z,97007.16
2022-12-15T06:04:50.115Z,97002.28
2022-12-15T06:05:56.734Z,97014.09
2022-12-15T06:07:00.163Z,97017.16
2022-12-15T06:08:05.955Z,97021.06
2022-12-15T06:09:12.258Z,97024.13
2022-12-15T06:10:19.256Z,97021.00
2022-12-15T06:11:23.496Z,97032.28
2022-12-15T06:12:29.379Z,97019.25
2022-12-15T06:13:35.275Z,97037.19
2022-12-15T06:14:41.534Z,97035.78
2022-12-15T06:15:57.226Z,97031.81
2022-12-15T06:17:03.729Z,97036.78
2022-12-15T06:18:07.045Z,97037.34
2022-12-15T06:19:12.938Z,97030.25
2022-12-15T06:20:16.539Z,97031.53
2022-12-15T06:21:26.978Z,97039.09
2022-12-15T06:22:31.439Z,97042.41
2022-12-15T06:23:39.925Z,97045.97
2022-12-15T06:24:48.487Z,97049.25
2022-12-15T06:25:51.818Z,97050.09
2022-12-15T06:26:59.522Z,97054.16
2022-12-15T06:28:02.800Z,97049.41
2022-12-15T06:29:13.447Z,97054.25
2022-12-15T06:30:17.005Z,97045.31
2022-12-15T06:31:25.800Z,97049.31
2022-12-15T06:32:30.133Z,97052.47
2022-12-15T06:33:36.773Z,97053.09
2022-12-15T06:34:42.632Z,97054.72
2022-12-15T06:35:46.005Z,97053.81
2022-12-15T06:36:51.847Z,97062.34
2022-12-15T06:37:55.913Z,97058.53
2022-12-15T06:39:05.466Z,97040.78
2022-12-15T06:40:15.171Z,97066.69
2022-12-15T06:41:21.706Z,97064.22
2022-12-15T06:42:27.524Z,97068.47
2022-12-15T06:43:34.018Z,97070.34
2022-12-15T06:44:40.233Z,97078.88
2022-12-15T06:45:49.930Z,97061.22
2022-12-15T06:46:56.020Z,97069.84
2022-12-15T06:48:01.440Z,97064.22
2022-12-15T06:49:09.261Z,97071.56
2022-12-15T06:50:15.164Z,97074.19
2022-12-15T06:51:18.682Z,97086.25
2022-12-15T06:52:24.624Z,97085.41
2022-12-15T06:53:28.144Z,97086.00
2022-12-15T06:54:35.072Z,97078.19
2022-12-15T06:55:42.437Z,97088.25
2022-12-15T06:56:49.848Z,97094.28
2022-12-15T06:57:53.430Z,97097.44
2022-12-15T06:58:59.537Z,97096.78
2022-12-15T07:00:05.783Z,97107.31
2022-12-15T07:01:12.096Z,97109.91
2022-12-15T07:02:21.117Z,97107.06
2022-12-15T07:03:31.083Z,97115.69
2022-12-15T07:04:35.043Z,97119.75
2022-12-15T07:05:41.819Z,97120.59
2022-12-15T07:06:48.013Z,97114.69
2022-12-15T07:07:55.699Z,97127.94
2022-12-15T07:08:59.230Z,97126.75
2022-12-15T07:10:05.130Z,97127.69
2022-12-15T07:11:16.188Z,97132.66
2022-12-15T07:12:19.572Z,97125.56
2022-12-15T07:13:26.450Z,97138.59
2022-12-15T07:14:32.529Z,97147.97
2022-12-15T07:15:39.259Z,97141.78
2022-12-15T07:16:46.596Z,97126.75
2022-12-15T07:17:51.365Z,97152.44
2022-12-15T07:18:57.488Z,97157.19
2022-12-15T07:20:03.500Z,97162.97
2022-12-15T07:21:10.216Z,97158.72
2022-12-15T07:22:16.942Z,97154.94
2022-12-15T07:23:29.600Z,97160.47
2022-12-15T07:24:46.632Z,97147.22
2022-12-15T07:25:49.970Z,97166.97
2022-12-15T07:26:59.248Z,97163.44
2022-12-15T07:28:03.845Z,97161.66
2022-12-15T07:29:09.801Z,97171.50
2022-12-15T07:30:15.691Z,97168.28
2022-12-15T07:31:21.848Z,97172.34
2022-12-15T07:32:27.884Z,97162.75
2022-12-15T07:33:34.039Z,97161.31
2022-12-15T07:34:40.194Z,97161.31
2022-12-15T07:35:44.528Z,97180.97
2022-12-15T07:36:52.679Z,97180.72
2022-12-15T07:37:56.752Z,97177.19
2022-12-15T07:39:08.396Z,97175.41
2022-12-15T07:40:12.868Z,97186.41
2022-12-15T07:41:19.300Z,97175.28
2022-12-15T07:42:28.434Z,97180.38
2022-12-15T07:43:33.364Z,97180.84
2022-12-15T07:44:41.280Z,97183.59
2022-12-15T07:45:51.156Z,97181.47
2022-12-15T07:46:57.562Z,97177.66
2022-12-15T07:48:03.488Z,97169.50
2022-12-15T07:49:09.917Z,97177.19
2022-12-15T07:50:14.288Z,97178.84
2022-12-15T07:51:21.052Z,97179.94
2022-12-15T07:52:24.988Z,97187.25
2022-12-15T07:53:31.643Z,97177.66
2022-12-15T07:54:37.913Z,97182.84
2022-12-15T07:56:05.463Z,97173.50
2022-12-15T07:57:08.211Z,97191.16
2022-12-15T07:58:14.165Z,97192.22
2022-12-15T07:59:20.070Z,97193.28
2022-12-15T08:00:23.825Z,97192.53
2022-12-15T08:01:31.319Z,97193.25
2022-12-15T08:02:35.118Z,97189.56
2022-12-15T08:03:42.835Z,97195.72
2022-12-15T08:04:49.208Z,97194.53
2022-12-15T08:06:00.289Z,97192.50
2022-12-15T08:07:12.490Z,97194.88
2022-12-15T08:08:18.802Z,97208.38
2022-12-15T08:09:25.290Z,97208.38
2022-12-15T08:10:31.271Z,97212.75
2022-12-15T08:11:37.527Z,97222.63
2022-12-15T08:12:44.334Z,97224.25
2022-12-15T08:14:03.234Z,97217.97
2022-12-15T08:15:13.172Z,97224.63
2022-12-15T08:16:16.673Z,97223.94
2022-12-15T08:17:26.063Z,97226.09
2022-12-15T08:18:30.313Z,97229.16
2022-12-15T08:19:37.003Z,97233.41
2022-12-15T08:20:42.932Z,97241.59
2022-12-15T08:21:50.280Z,97235.06
2022-12-15T08:22:53.644Z,97233.97
2022-12-15T08:24:01.038Z,97244.41
2022-12-15T08:25:08.041Z,97240.59
2022-12-15T08:26:17.892Z,97250.56
2022-12-15T08:27:24.538Z,97248.41
2022-12-15T08:28:27.893Z,97242.84
2022-12-15T08:29:54.850Z,97244.75
2022-12-15T08:31:07.080Z,97240.84
2022-12-15T08:32:14.645Z,97242.72
2022-12-15T08:33:17.962Z,97250.31
2022-12-15T08:34:24.284Z,97251.94
2022-12-15T08:35:55.720Z,97255.63
2022-12-15T08:36:58.626Z,97264.19
2022-12-15T08:38:05.596Z,97263.81
2022-12-15T08:39:11.945Z,97251.63
2022-12-15T08:40:18.337Z,97255.41
2022-12-15T08:41:27.286Z,97263.13
2022-12-15T08:42:37.098Z,97271.66
2022-12-15T08:43:48.620Z,97256.50
2022-12-15T08:44:57.870Z,97269.75
2022-12-15T08:46:01.490Z,97268.69
2022-12-15T08:47:08.414Z,97269.50
2022-12-15T08:48:11.698Z,97270.69
2022-12-15T08:49:21.838Z,97269.34
2022-12-15T08:50:28.467Z,97268.63
2022-12-15T08:51:34.133Z,97270.19
2022-12-15T08:52:55.254Z,97269.25
2022-12-15T08:54:08.634Z,97273.63
2022-12-15T08:55:19.309Z,97273.50
2022-12-15T08:56:30.546Z,97271.84
2022-12-15T08:57:36.569Z,97266.63
2022-12-15T08:58:41.026Z,97266.28
2022-12-15T08:59:46.944Z,97270.84
2022-12-15T09:00:55.730Z,97275.59
2022-12-15T09:02:00.750Z,97270.84
2022-12-15T09:03:06.875Z,97272.63
2022-12-15T09:04:13.761Z,97269.69
2022-12-15T09:05:20.478Z,97269.59
2022-12-15T09:06:28.211Z,97267.25
2022-12-15T09:07:34.729Z,97265.09
2022-12-15T09:08:38.156Z,97264.50
2022-12-15T09:09:46.286Z,97264.50
2022-12-15T09:10:52.577Z,97260.13
2022-12-15T09:11:58.812Z,97265.13
2022-12-15T09:13:02.111Z,97266.78
2022-12-15T09:14:09.575Z,97270.88
2022-12-15T09:15:16.590Z,97270.78
2022-12-15T09:16:24.399Z,97270.81
2022-12-15T09:17:31.335Z,97269.03
2022-12-15T09:18:35.714Z,97268.63
2022-12-15T09:19:41.599Z,97277.53
2022-12-15T09:20:45.976Z,97281.44
2022-12-15T09:21:51.994Z,97287.56
2022-12-15T09:22:57.883Z,97280.63
2022-12-15T09:24:06.669Z,97277.72
2022-12-15T09:25:13.584Z,97273.44
2022-12-15T09:26:18.717Z,97282.19
2022-12-15T09:27:24.721Z,97276.94
2022-12-15T09:28:29.617Z,97285.69
2022-12-15T09:29:36.018Z,97293.66
2022-12-15T09:30:42.480Z,97294.34
2022-12-15T09:31:51.837Z,97291.03
2022-12-15T09:32:57.857Z,97291.25
2022-12-15T09:34:02.639Z,97289.56
2022-12-15T09:35:10.135Z,97297.59
2022-12-15T09:36:13.666Z,97301.53
2022-12-15T09:37:20.636Z,97298.22
2022-12-15T09:38:23.988Z,97303.19
2022-12-15T09:39:30.267Z,97302.41
2022-12-15T09:40:33.798Z,97298.63
2022-12-15T09:41:40.031Z,97307.72
2022-12-15T09:43:25.652Z,97296.75
2022-12-15T09:44:28.642Z,97302.00
2022-12-15T09:45:47.905Z,97310.25
2022-12-15T09:47:16.206Z,97315.34
2022-12-15T09:48:28.052Z,97310.59
2022-12-15T09:49:57.541Z,97312.75
2022-12-15T09:51:11.643Z,97309.63
2022-12-15T09:52:19.882Z,97313.91
2022-12-15T09:53:54.315Z,97298.72
2022-12-15T09:54:56.467Z,97301.72
2022-12-15T09:56:14.710Z,97299.38
2022-12-15T09:57:34.786Z,97307.31
2022-12-15T09:58:59.558Z,97297.25
2022-12-15T10:00:26.601Z,97290.75
2022-12-15T10:01:49.718Z,97294.78
2022-12-15T10:03:36.581Z,97292.38
2022-12-15T10:05:00.230Z,97295.91
2022-12-15T10:06:18.261Z,97301.13
2022-12-15T10:07:41.195Z,97294.38
2022-12-15T10:08:52.365Z,97307.47
2022-12-15T10:09:56.888Z,97313.91
2022-12-15T10:11:07.434Z,97312.97
2022-12-15T10:12:25.559Z,97321.50
2022-12-15T10:13:45.832Z,97316.03
2022-12-15T10:15:19.874Z,97314.59
2022-12-15T10:16:45.060Z,97318.97
2022-12-15T10:18:08.080Z,97318.97
2022-12-15T10:19:29.873Z,97319.16
2022-12-15T10:20:36.712Z,97312.66
2022-12-15T10:21:44.677Z,97320.84
2022-12-15T10:23:02.525Z,97278.84
2022-12-15T10:24:44.413Z,97306.84
2022-12-15T10:25:53.420Z,97307.63
2022-12-15T10:27:20.463Z,97302.59
2022-12-15T10:28:59.023Z,97301.06
2022-12-15T10:30:09.169Z,97307.09
2022-12-15T10:31:27.092Z,97303.59
2022-12-15T10:32:51.106Z,97298.94
2022-12-15T10:34:12.238Z,97306.41
2022-12-15T10:35:27.873Z,97288.44
2022-12-15T10:36:31.891Z,97277.06
2022-12-15T10:37:39.252Z,97284.47
2022-12-15T10:38:50.223Z,97282.03
2022-12-15T10:39:56.711Z,97278.91
2022-12-15T10:41:09.492Z,97285.22
2022-12-15T10:42:18.821Z,97289.63
2022-12-15T10:43:32.622Z,97288.91
2022-12-15T10:44:40.559Z,97290.66
2022-12-15T10:45:47.006Z,97292.41
2022-12-15T10:46:58.770Z,97289.44
2022-12-15T10:48:07.095Z,97291.63
2022-12-15T10:49:28.081Z,97297.91
2022-12-15T10:50:38.436Z,97298.19
2022-12-15T10:51:57.798Z,97293.16
2022-12-15T10:53:11.322Z,97299.53
2022-12-15T10:54:21.276Z,97294.16
2022-12-15T10:55:42.659Z,97294.03
2022-12-15T10:56:56.008Z,97302.44
2022-12-15T10:58:02.676Z,97299.00
2022-12-15T10:59:28.893Z,97290.66
2022-12-15T11:00:37.428Z,97291.28
2022-12-15T11:01:43.524Z,97294.50
2022-12-15T11:02:49.716Z,97291.84
2022-12-15T11:03:57.082Z,97294.63
2022-12-15T11:05:07.195Z,97298.88
2022-12-15T11:06:23.593Z,97280.78
2022-12-15T11:07:42.954Z,97308.56
2022-12-15T11:08:50.647Z,97308.50
2022-12-15T11:10:03.958Z,97315.06
2022-12-15T11:11:45.125Z,97312.06
2022-12-15T11:13:16.468Z,97321.72
2022-12-15T11:14:24.415Z,97316.28
2022-12-15T11:15:51.458Z,97325.66
2022-12-15T11:17:01.350Z,97329.03
2022-12-15T11:18:30.962Z,97324.06
2022-12-15T11:19:58.100Z,97320.25
2022-12-15T11:21:15.809Z,97320.16
2022-12-15T11:22:41.309Z,97314.56
2022-12-15T11:24:16.184Z,97323.00
2022-12-15T11:25:34.682Z,97322.72
2022-12-15T11:26:55.501Z,97322.03
2022-12-15T11:28:09.919Z,97330.88
2022-12-15T11:29:34.734Z,97325.63
2022-12-15T11:30:52.345Z,97330.00
2022-12-15T11:32:06.464Z,97331.78
2022-12-15T11:33:13.640Z,97342.41
2022-12-15T11:34:27.571Z,97338.91
2022-12-15T11:35:59.181Z,97340.25
2022-12-15T11:37:44.527Z,97340.53
2022-12-15T11:39:01.944Z,97335.53
2022-12-15T11:40:37.965Z,97316.81
2022-12-15T11:42:00.367Z,97342.22
2022-12-15T11:43:38.183Z,97323.66
2022-12-15T11:45:01.286Z,97340.22
2022-12-15T11:46:27.359Z,97331.44
2022-12-15T11:47:46.806Z,97340.66
2022-12-15T11:49:25.840Z,97347.22
2022-12-15T11:50:44.266Z,97354.06
2022-12-15T11:52:04.824Z,97352.06
2022-12-15T11:53:49.394Z,97352.72
2022-12-15T11:55:08.276Z,97357.66
2022-12-15T11:56:31.333Z,97358.53
2022-12-15T11:58:12.032Z,97354.03
2022-12-15T11:59:46.849Z,97351.00
2022-12-15T12:01:12.930Z,97351.72
2022-12-15T12:02:52.989Z,97358.97
2022-12-15T12:04:21.027Z,97356.38
2022-12-15T12:06:03.218Z,97359.75
2022-12-15T12:07:27.341Z,97363.66
2022-12-15T12:09:15.959Z,97380.16
2022-12-15T12:10:42.921Z,97373.66
2022-12-15T12:12:02.122Z,97372.91
2022-12-15T12:13:27.052Z,97370.19
2022-12-15T12:14:54.288Z,97364.72
2022-12-15T12:16:23.576Z,97361.41
2022-12-15T12:17:45.598Z,97361.41
2022-12-15T12:19:05.861Z,97357.50
2022-12-15T12:20:25.802Z,97345.16
2022-12-15T12:21:41.646Z,97329.78
2022-12-15T12:23:05.344Z,97342.66
2022-12-15T12:24:27.991Z,97338.31
2022-12-15T12:25:48.702Z,97348.03
2022-12-15T12:27:05.646Z,97347.09
2022-12-15T12:28:26.021Z,97344.81
2022-12-15T12:29:40.155Z,97346.34
2022-12-15T12:30:50.672Z,97347.66
2022-12-15T12:32:14.505Z,97344.69
2022-12-15T12:33:36.912Z,97348.47
2022-12-15T12:35:30.691Z,97353.97
2022-12-15T12:36:31.654Z,97343.75
2022-12-15T12:37:46.989Z,97343.75
2022-12-15T12:39:01.559Z,97325.03
2022-12-15T12:40:25.482Z,97352.41
2022-12-15T12:41:46.967Z,97360.34
2022-12-15T12:42:59.301Z,97358.69
2022-12-15T12:44:22.479Z,97355.69
2022-12-15T12:45:40.791Z,97362.19
2022-12-15T12:46:53.507Z,97371.22
2022-12-15T12:48:12.985Z,97369.31
2022-12-15T12:49:31.599Z,97364.81
2022-12-15T12:50:38.310Z,97365.31
2022-12-15T12:51:51.971Z,97377.31
2022-12-15T12:53:04.057Z,97369.50
2022-12-15T12:54:47.234Z,97371.50
2022-12-15T12:55:59.107Z,97369.88
2022-12-15T12:57:25.971Z,97371.03
2022-12-15T12:58:41.615Z,97365.56
2022-12-15T13:00:00.576Z,97360.97
2022-12-15T13:01:28.713Z,97358.09
2022-12-15T13:03:22.502Z,97361.31
2022-12-15T13:04:46.207Z,97340.56
2022-12-15T13:05:55.063Z,97339.72
2022-12-15T13:07:07.771Z,97355.38
2022-12-15T13:08:56.040Z,97358.81
2022-12-15T13:10:21.228Z,97351.56
2022-12-15T13:12:20.701Z,97348.47
2022-12-15T13:13:53.086Z,97351.31
2022-12-15T13:15:02.099Z,97340.16
2022-12-15T13:16:21.729Z,97330.66
2022-12-15T13:17:35.662Z,97346.47
2022-12-15T13:19:08.717Z,97335.56
2022-12-15T13:20:34.578Z,97343.72
2022-12-15T13:21:58.999Z,97348.44
2022-12-15T13:23:44.158Z,97352.44
2022-12-15T13:24:54.960Z,97352.69
2022-12-15T13:26:18.032Z,97351.59
2022-12-15T13:27:26.867Z,97350.78
2022-12-15T13:28:48.265Z,97339.81
2022-12-15T13:30:04.852Z,97345.38
2022-12-15T13:31:42.137Z,97344.56
2022-12-15T13:32:54.779Z,97344.94
2022-12-15T13:34:29.333Z,97358.78
2022-12-15T13:35:36.097Z,97363.16
2022-12-15T13:36:57.913Z,97364.44
2022-12-15T13:38:07.724Z,97365.09
2022-12-15T13:39:56.289Z,97368.28
2022-12-15T13:41:02.517Z,97375.25
2022-12-15T13:42:56.257Z,97376.22
2022-12-15T13:44:02.109Z,97378.00
2022-12-15T13:45:50.696Z,97382.16
2022-12-15T13:46:59.153Z,97386.78
2022-12-15T13:48:18.766Z,97382.22
2022-12-15T13:49:37.634Z,97379.25
2022-12-15T13:50:58.580Z,97387.56
2022-12-15T13:52:17.210Z,97391.59
2022-12-15T13:53:28.100Z,97400.81
2022-12-15T13:54:43.326Z,97404.50
2022-12-15T13:56:07.239Z,97406.19
2022-12-15T13:57:19.280Z,97397.47
2022-12-15T13:58:28.880Z,97409.44
2022-12-15T13:59:49.380Z,97410.59
2022-12-15T14:01:00.072Z,97414.16
2022-12-15T14:02:06.199Z,97413.81
2022-12-15T14:03:12.961Z,97408.72
2022-12-15T14:04:19.153Z,97422.34
2022-12-15T14:05:27.281Z,97423.19
2022-12-15T14:06:40.396Z,97427.00
2022-12-15T14:07:54.823Z,97425.78
2022-12-15T14:09:01.299Z,97425.44
2022-12-15T14:10:19.292Z,97425.78
2022-12-15T14:11:52.853Z,97441.94
2022-12-15T14:13:15.858Z,97454.03
2022-12-15T14:14:30.416Z,97451.06
2022-12-15T14:15:38.920Z,97455.44
2022-12-15T14:16:47.046Z,97455.56
2022-12-15T14:18:00.797Z,97453.00
2022-12-15T14:19:19.106Z,97453.81
2022-12-15T14:20:29.222Z,97462.81
2022-12-15T14:21:32.564Z,97458.81
2022-12-15T14:22:38.522Z,97460.56
2022-12-15T14:24:19.046Z,97465.06
2022-12-15T14:25:23.981Z,97463.72
2022-12-15T14:26:32.618Z,97459.81